Terminal Aerodrome Forecast
Issued by NWS Rapid City, SD

Home | Current Version | Previous Version | Graphics & Text | Print | Product List | Glossary On
Versions: 1 2 3 4 5 6 7 8 9 10 11 12 13 14 15 16 17
509
FTUS43 KUNR 262326
TAFRAP
TAF
KRAP 262326Z 2700/2724 16005KT P6SM VCSH OVC070
     FM270100 29006KT P6SM -SHRA OVC070
     FM270500 31005KT P6SM VCSH OVC050
     FM271000 31006KT P6SM BKN060
     FM271600 34012KT P6SM SCT100=

USA.gov is the U.S. government's official web portal to all federal, state and local government web resources and services.